createdAt,value
2019-02-12T00:01:54.926Z,61.34
2019-02-12T00:04:23.591Z,59.98
2019-02-12T00:06:52.174Z,60.73
2019-02-12T00:09:20.799Z,60.18
2019-02-12T00:11:49.400Z,60.65
2019-02-12T00:14:18.012Z,59.52
2019-02-12T00:16:46.579Z,58.97
2019-02-12T00:19:15.176Z,60.71
2019-02-12T00:21:43.834Z,58.48
2019-02-12T00:24:12.468Z,62.52
2019-02-12T00:26:41.050Z,59.64
2019-02-12T00:29:09.761Z,58.77
2019-02-12T00:31:38.348Z,57.64
2019-02-12T00:34:06.964Z,59.04
2019-02-12T00:36:35.557Z,58.36
2019-02-12T00:39:05.032Z,58.63
2019-02-12T00:41:33.622Z,61.42
2019-02-12T00:44:02.233Z,60.36
2019-02-12T00:46:30.829Z,60.98
2019-02-12T00:48:59.667Z,58.85
2019-02-12T00:51:28.245Z,62.96
2019-02-12T00:53:56.862Z,60.24
2019-02-12T00:56:25.447Z,58.59
2019-02-12T00:58:54.057Z,58.89
2019-02-12T01:01:22.636Z,59.64
2019-02-12T01:03:51.279Z,58.85
2019-02-12T01:06:19.833Z,59.19
2019-02-12T01:08:48.469Z,60.38
2019-02-12T01:11:17.072Z,62.27
2019-02-12T01:13:45.669Z,60.30
2019-02-12T01:16:14.365Z,61.62
2019-02-12T01:18:42.966Z,62.05
2019-02-12T01:21:11.558Z,61.72
2019-02-12T01:23:40.157Z,62.49
2019-02-12T01:26:08.758Z,62.76
2019-02-12T01:28:37.347Z,60.84
2019-02-12T01:31:05.961Z,66.27
2019-02-12T01:33:34.544Z,67.10
2019-02-12T01:36:03.155Z,69.47
2019-02-12T01:38:31.742Z,69.18
2019-02-12T01:41:00.352Z,67.50
2019-02-12T01:43:28.933Z,72.24
2019-02-12T01:45:57.532Z,68.70
2019-02-12T01:48:26.117Z,70.59
2019-02-12T01:50:54.713Z,67.43
2019-02-12T01:53:23.354Z,70.46
2019-02-12T01:55:51.906Z,72.53
2019-02-12T01:58:20.487Z,69.60
2019-02-12T02:00:49.087Z,72.29
2019-02-12T02:03:17.668Z,70.28
2019-02-12T02:05:46.279Z,69.80
2019-02-12T02:08:14.890Z,71.33
2019-02-12T02:10:43.508Z,68.62
2019-02-12T02:13:12.138Z,70.52
2019-02-12T02:15:40.797Z,70.35
2019-02-12T02:18:09.413Z,70.72
2019-02-12T02:20:37.993Z,69.16
2019-02-12T02:23:06.665Z,70.87
2019-02-12T02:25:35.245Z,69.07
2019-02-12T02:28:03.845Z,70.35
2019-02-12T02:30:32.489Z,69.64
2019-02-12T02:33:01.071Z,67.23
2019-02-12T02:35:29.653Z,66.87
2019-02-12T02:37:58.256Z,69.14
2019-02-12T02:40:26.848Z,70.88
2019-02-12T02:42:55.442Z,69.87
2019-02-12T02:45:24.025Z,68.30
2019-02-12T02:47:52.631Z,71.30
2019-02-12T02:50:21.254Z,67.88
2019-02-12T02:52:49.832Z,65.97
2019-02-12T02:55:18.445Z,68.37
2019-02-12T02:57:47.035Z,67.39
2019-02-12T03:00:15.834Z,67.51
2019-02-12T03:02:44.425Z,65.45
2019-02-12T03:05:13.048Z,66.54
2019-02-12T03:07:41.729Z,63.45
2019-02-12T03:10:10.538Z,64.59
2019-02-12T03:12:39.147Z,64.83
2019-02-12T03:15:08.674Z,63.91
2019-02-12T03:17:37.272Z,66.13
2019-02-12T03:20:06.614Z,67.02
2019-02-12T03:22:35.209Z,68.78
2019-02-12T03:25:03.957Z,65.70
2019-02-12T03:27:32.547Z,66.96
2019-02-12T03:30:01.130Z,66.97
2019-02-12T03:32:29.772Z,64.75
2019-02-12T03:34:58.363Z,68.39
2019-02-12T03:37:26.962Z,66.77
2019-02-12T03:39:55.545Z,65.27
2019-02-12T03:42:24.136Z,67.58
2019-02-12T03:44:52.958Z,70.19
2019-02-12T03:47:21.639Z,68.05
2019-02-12T03:49:50.238Z,68.98
2019-02-12T03:52:19.513Z,69.16
2019-02-12T03:54:48.623Z,69.61
2019-02-12T03:57:17.229Z,67.87
2019-02-12T03:59:45.885Z,70.25
2019-02-12T04:02:14.562Z,70.03
2019-02-12T04:04:43.234Z,66.69
2019-02-12T04:07:11.840Z,66.99
2019-02-12T04:09:40.445Z,66.65
2019-02-12T04:12:09.124Z,66.00
2019-02-12T04:14:37.992Z,67.49
2019-02-12T04:17:06.612Z,69.82
2019-02-12T04:19:35.194Z,68.78
2019-02-12T04:22:03.794Z,68.03
2019-02-12T04:24:32.403Z,68.31
2019-02-12T04:27:00.999Z,70.81
2019-02-12T04:29:29.616Z,70.18
2019-02-12T04:31:58.300Z,70.57
2019-02-12T04:34:26.888Z,71.41
2019-02-12T04:36:55.463Z,72.28
2019-02-12T04:39:24.080Z,73.51
2019-02-12T04:41:52.682Z,71.71
2019-02-12T04:44:21.271Z,69.38
2019-02-12T04:46:49.855Z,68.65
2019-02-12T04:49:19.765Z,72.07
2019-02-12T04:51:48.335Z,69.97
2019-02-12T04:54:16.954Z,68.37
2019-02-12T04:56:45.625Z,68.34
2019-02-12T04:59:14.251Z,69.34
2019-02-12T05:01:42.888Z,69.67
2019-02-12T05:04:11.524Z,70.06
2019-02-12T05:06:40.386Z,70.73
2019-02-12T05:09:16.927Z,69.06
2019-02-12T05:11:54.582Z,66.36
2019-02-12T05:14:23.303Z,67.32
2019-02-12T05:16:51.902Z,68.81
2019-02-12T05:19:20.513Z,68.59
2019-02-12T05:21:49.102Z,68.96
2019-02-12T05:24:17.961Z,71.34
2019-02-12T05:26:46.537Z,67.57
2019-02-12T05:29:15.137Z,67.41
2019-02-12T05:31:43.717Z,69.41
2019-02-12T05:34:13.861Z,67.03
2019-02-12T05:36:42.437Z,68.86
2019-02-12T05:39:11.035Z,70.60
2019-02-12T05:41:41.513Z,70.51
2019-02-12T05:44:10.074Z,68.45
2019-02-12T05:46:38.651Z,68.83
2019-02-12T05:49:07.246Z,66.67
2019-02-12T05:51:35.863Z,67.79
2019-02-12T05:54:04.457Z,68.90
2019-02-12T05:56:33.094Z,68.47
2019-02-12T05:59:01.707Z,68.79
2019-02-12T06:01:30.301Z,67.49
2019-02-12T06:03:58.907Z,68.64
2019-02-12T06:06:27.509Z,68.13
2019-02-12T06:08:56.094Z,68.82
2019-02-12T06:11:24.715Z,69.31
2019-02-12T06:13:53.305Z,70.84
2019-02-12T06:16:21.985Z,71.27
2019-02-12T06:18:50.576Z,68.88
2019-02-12T06:21:19.196Z,70.41
2019-02-12T06:23:47.777Z,69.00
2019-02-12T06:26:16.394Z,71.08
2019-02-12T06:28:44.995Z,69.95
2019-02-12T06:31:13.622Z,70.18
2019-02-12T06:33:42.271Z,68.56
2019-02-12T06:36:10.894Z,68.88
2019-02-12T06:38:39.491Z,68.52
2019-02-12T06:41:08.113Z,68.15
2019-02-12T06:43:36.758Z,66.73
2019-02-12T06:46:05.358Z,68.49
2019-02-12T06:48:33.956Z,68.47
2019-02-12T06:51:02.578Z,66.37
2019-02-12T06:53:31.199Z,68.73
2019-02-12T06:55:59.890Z,67.37
2019-02-12T06:58:28.519Z,68.37
2019-02-12T07:00:57.113Z,68.83
2019-02-12T07:03:36.229Z,68.06
2019-02-12T07:06:08.656Z,68.60
2019-02-12T07:09:05.438Z,67.90
2019-02-12T07:12:15.088Z,66.24
2019-02-12T07:14:57.300Z,68.46
2019-02-12T07:17:53.518Z,67.32
2019-02-12T07:20:33.646Z,66.37
2019-02-12T07:23:33.783Z,66.42
2019-02-12T07:26:42.732Z,66.69
2019-02-12T07:29:48.661Z,65.74
2019-02-12T07:33:13.287Z,70.16
2019-02-12T07:36:08.653Z,67.29
2019-02-12T07:39:07.865Z,68.63
2019-02-12T07:41:54.237Z,66.35
2019-02-12T07:45:08.912Z,66.10
2019-02-12T07:48:09.238Z,66.72
2019-02-12T07:50:51.116Z,68.00
2019-02-12T07:53:49.504Z,69.75
2019-02-12T07:56:42.200Z,68.32
2019-02-12T07:59:32.456Z,68.03
2019-02-12T08:02:47.185Z,66.09
2019-02-12T08:05:46.034Z,68.24
2019-02-12T08:09:20.189Z,65.17
2019-02-12T08:12:32.884Z,65.04
2019-02-12T08:15:35.933Z,67.32
2019-02-12T08:18:23.612Z,66.41
2019-02-12T08:21:36.900Z,66.89
2019-02-12T08:24:49.096Z,65.23
2019-02-12T08:27:42.673Z,67.63
2019-02-12T08:30:45.348Z,66.49
2019-02-12T08:33:45.026Z,66.35
2019-02-12T08:36:26.094Z,67.26
2019-02-12T08:39:22.426Z,68.13
2019-02-12T08:42:13.801Z,67.60
2019-02-12T08:45:03.918Z,67.08
2019-02-12T08:47:57.380Z,65.94
2019-02-12T08:50:46.160Z,65.34
2019-02-12T08:54:08.106Z,66.75
2019-02-12T08:57:21.400Z,66.41
2019-02-12T09:00:26.999Z,65.71
2019-02-12T09:03:39.769Z,65.23
2019-02-12T09:06:35.747Z,66.58
2019-02-12T09:09:29.490Z,65.80
2019-02-12T09:12:28.875Z,65.07
2019-02-12T09:15:45.474Z,66.02
2019-02-12T09:18:40.628Z,65.41
2019-02-12T09:21:53.036Z,62.95
2019-02-12T09:24:28.640Z,63.43
2019-02-12T09:27:26.562Z,63.43
2019-02-12T09:30:17.034Z,63.01
2019-02-12T09:33:23.004Z,64.75
2019-02-12T09:36:17.436Z,63.28
2019-02-12T09:39:28.803Z,63.62
2019-02-12T09:42:28.209Z,62.46
2019-02-12T09:45:28.597Z,60.47
2019-02-12T09:48:10.721Z,62.07
2019-02-12T09:51:07.570Z,60.99
2019-02-12T09:54:23.996Z,60.20
2019-02-12T09:57:11.558Z,58.93
2019-02-12T09:59:59.719Z,56.87
2019-02-12T10:03:03.975Z,58.85
2019-02-12T10:06:21.535Z,60.69
2019-02-12T10:09:10.182Z,60.63
2019-02-12T10:12:14.760Z,57.37
2019-02-12T10:15:21.494Z,58.32
2019-02-12T10:18:33.090Z,59.04
2019-02-12T10:21:44.445Z,58.27
2019-02-12T10:24:46.874Z,56.59
2019-02-12T10:27:45.388Z,56.89
2019-02-12T10:30:27.718Z,59.89
2019-02-12T10:32:56.318Z,58.89
2019-02-12T10:35:24.909Z,60.61
2019-02-12T10:37:53.585Z,61.08
2019-02-12T10:40:22.271Z,58.84
2019-02-12T10:42:50.885Z,57.84
2019-02-12T10:45:19.461Z,57.57
2019-02-12T10:47:48.055Z,56.93
2019-02-12T10:50:16.631Z,57.12
2019-02-12T10:52:45.216Z,57.22
2019-02-12T10:55:13.828Z,56.36
2019-02-12T10:57:42.412Z,53.82
2019-02-12T11:00:12.660Z,54.58
2019-02-12T11:02:41.250Z,56.21
2019-02-12T11:05:10.099Z,53.94
2019-02-12T11:07:38.678Z,55.50
2019-02-12T11:10:08.108Z,57.68
2019-02-12T11:12:36.770Z,56.70
2019-02-12T11:15:05.730Z,56.66
2019-02-12T11:17:34.332Z,55.87
2019-02-12T11:20:02.953Z,54.84
2019-02-12T11:22:31.525Z,56.69
2019-02-12T11:25:00.256Z,58.92
2019-02-12T11:27:28.834Z,57.36
2019-02-12T11:29:57.439Z,56.31
2019-02-12T11:32:26.012Z,56.42
2019-02-12T11:34:54.630Z,60.01
2019-02-12T11:37:23.183Z,56.13
2019-02-12T11:39:51.772Z,56.34
2019-02-12T11:42:20.355Z,57.12
2019-02-12T11:44:48.973Z,57.02
2019-02-12T11:47:17.548Z,58.74
2019-02-12T11:49:46.153Z,56.46
2019-02-12T11:52:14.746Z,55.55
2019-02-12T11:54:43.910Z,54.85
2019-02-12T11:57:12.770Z,54.70
2019-02-12T11:59:41.379Z,54.94
2019-02-12T12:02:09.981Z,55.23
2019-02-12T12:04:38.561Z,57.21
2019-02-12T12:07:07.155Z,58.40
2019-02-12T12:09:35.749Z,57.76
2019-02-12T12:12:04.435Z,59.49
2019-02-12T12:14:33.108Z,59.56
2019-02-12T12:17:01.733Z,57.79
2019-02-12T12:19:30.339Z,57.17
2019-02-12T12:21:58.977Z,55.57
2019-02-12T12:24:27.562Z,56.34
2019-02-12T12:26:56.171Z,56.08
2019-02-12T12:29:25.095Z,55.49
2019-02-12T12:31:53.775Z,55.88
2019-02-12T12:34:22.362Z,55.88
2019-02-12T12:36:51.017Z,57.38
2019-02-12T12:39:19.749Z,57.36
2019-02-12T12:41:48.361Z,58.38
2019-02-12T12:44:16.997Z,57.32
2019-02-12T12:46:45.633Z,56.05
2019-02-12T12:49:14.305Z,56.59
2019-02-12T12:51:42.973Z,57.79
2019-02-12T12:54:11.684Z,60.69
2019-02-12T12:56:40.321Z,59.95
2019-02-12T12:59:09.167Z,60.46
2019-02-12T13:01:37.769Z,62.23
2019-02-12T13:04:06.384Z,58.97
2019-02-12T13:06:35.025Z,59.47
2019-02-12T13:09:05.398Z,60.65
2019-02-12T13:11:34.162Z,56.75
2019-02-12T13:14:02.917Z,58.82
2019-02-12T13:16:31.496Z,56.08
2019-02-12T13:19:00.127Z,56.80
2019-02-12T13:21:28.753Z,57.14
2019-02-12T13:23:58.528Z,57.44
2019-02-12T13:26:27.480Z,59.16
2019-02-12T13:28:56.098Z,58.17
2019-02-12T13:31:24.830Z,56.62
2019-02-12T13:33:53.436Z,55.20
2019-02-12T13:36:22.196Z,57.58
2019-02-12T13:38:50.821Z,57.65
2019-02-12T13:41:19.603Z,59.13
2019-02-12T13:43:48.257Z,57.01
2019-02-12T13:46:17.359Z,55.67
2019-02-12T13:48:46.077Z,58.27
2019-02-12T13:51:14.698Z,57.94
2019-02-12T13:53:43.335Z,56.17
2019-02-12T13:56:12.243Z,56.15
2019-02-12T13:58:40.792Z,56.12
2019-02-12T14:01:09.473Z,59.20
2019-02-12T14:03:39.873Z,60.68
2019-02-12T14:06:08.531Z,59.15
2019-02-12T14:08:37.267Z,59.30
2019-02-12T14:11:05.911Z,58.24
2019-02-12T14:13:34.602Z,59.53
2019-02-12T14:16:03.775Z,58.13
2019-02-12T14:18:32.595Z,58.17
2019-02-12T14:21:01.210Z,57.73
2019-02-12T14:23:30.132Z,56.34
2019-02-12T14:25:58.902Z,57.89
2019-02-12T14:28:28.167Z,56.55
2019-02-12T14:30:56.970Z,55.76
2019-02-12T14:33:25.631Z,58.59
2019-02-12T14:35:54.637Z,57.52
2019-02-12T14:38:24.046Z,58.45
2019-02-12T14:40:52.763Z,56.14
2019-02-12T14:43:25.706Z,56.76
2019-02-12T14:45:54.943Z,55.47
2019-02-12T14:48:23.999Z,56.16
2019-02-12T14:50:53.177Z,57.60
2019-02-12T14:53:21.958Z,57.68
2019-02-12T14:55:50.600Z,56.65
2019-02-12T14:58:19.688Z,57.34
2019-02-12T15:00:48.437Z,59.38
2019-02-12T15:03:19.359Z,60.72
2019-02-12T15:05:47.882Z,60.39
2019-02-12T15:08:17.183Z,60.12
2019-02-12T15:10:45.784Z,59.98
2019-02-12T15:13:14.537Z,60.12
2019-02-12T15:15:44.657Z,57.56
2019-02-12T15:18:13.273Z,56.90
2019-02-12T15:20:41.953Z,57.11
2019-02-12T15:23:10.532Z,57.30
2019-02-12T15:25:42.035Z,58.82
2019-02-12T15:28:09.672Z,58.39
2019-02-12T15:30:38.253Z,60.00
2019-02-12T15:33:06.865Z,61.60
2019-02-12T15:35:35.465Z,60.20
2019-02-12T15:38:04.355Z,60.27
2019-02-12T15:40:32.927Z,58.01
2019-02-12T15:43:01.514Z,59.00
2019-02-12T15:45:30.118Z,61.08
2019-02-12T15:47:58.716Z,59.94
2019-02-12T15:50:27.315Z,62.49
2019-02-12T15:52:55.940Z,62.96
2019-02-12T15:55:24.530Z,61.03
2019-02-12T15:57:53.284Z,60.96
2019-02-12T16:00:21.878Z,60.96
2019-02-12T16:02:50.482Z,60.75
2019-02-12T16:05:19.068Z,60.61
2019-02-12T16:07:47.877Z,59.37
2019-02-12T16:10:17.784Z,58.60
2019-02-12T16:12:48.934Z,60.11
2019-02-12T16:15:21.151Z,59.13
2019-02-12T16:17:48.044Z,59.47
2019-02-12T16:20:16.625Z,58.02
2019-02-12T16:22:45.207Z,61.23
2019-02-12T16:25:15.377Z,61.25
2019-02-12T16:27:44.169Z,60.32
2019-02-12T16:30:14.819Z,60.24
2019-02-12T16:32:43.425Z,60.93
2019-02-12T16:35:13.214Z,62.49
2019-02-12T16:37:41.826Z,63.11
2019-02-12T16:40:11.325Z,60.40
2019-02-12T16:42:39.987Z,61.33
2019-02-12T16:45:11.667Z,61.01
2019-02-12T16:47:40.270Z,61.32
2019-02-12T16:50:08.956Z,61.19
2019-02-12T16:52:37.553Z,59.09
2019-02-12T16:55:07.032Z,59.99
2019-02-12T16:57:36.053Z,58.41
2019-02-12T17:00:07.572Z,58.64
2019-02-12T17:02:36.493Z,58.73
2019-02-12T17:05:06.121Z,57.93
2019-02-12T17:07:34.935Z,57.80
2019-02-12T17:10:04.082Z,59.18
2019-02-12T17:12:32.996Z,60.22
2019-02-12T17:15:01.697Z,59.19
2019-02-12T17:17:30.483Z,61.65
2019-02-12T17:19:59.190Z,63.22
2019-02-12T17:22:27.930Z,60.66
2019-02-12T17:24:56.827Z,60.26
2019-02-12T17:27:25.623Z,61.27
2019-02-12T17:29:54.181Z,60.22
2019-02-12T17:32:23.117Z,61.25
2019-02-12T17:34:51.733Z,60.45
2019-02-12T17:37:20.385Z,58.14
2019-02-12T17:39:48.996Z,60.05
2019-02-12T17:42:17.614Z,62.64
2019-02-12T17:44:46.215Z,63.36
2019-02-12T17:47:14.872Z,63.82
2019-02-12T17:49:43.555Z,64.70
2019-02-12T17:52:12.171Z,63.47
2019-02-12T17:54:40.792Z,65.65
2019-02-12T17:57:09.393Z,64.65
2019-02-12T17:59:38.087Z,63.29
2019-02-12T18:02:06.846Z,61.86
2019-02-12T18:04:35.638Z,61.17
2019-02-12T18:07:04.216Z,62.61
2019-02-12T18:09:32.854Z,62.25
2019-02-12T18:12:01.461Z,61.94
2019-02-12T18:14:30.135Z,62.51
2019-02-12T18:16:58.792Z,62.32
2019-02-12T18:19:27.459Z,62.72
2019-02-12T18:21:56.375Z,63.88
2019-02-12T18:24:24.967Z,63.58
2019-02-12T18:26:53.650Z,63.98
2019-02-12T18:29:23.261Z,64.96
2019-02-12T18:31:51.855Z,66.66
2019-02-12T18:34:20.460Z,63.57
2019-02-12T18:36:49.114Z,66.64
2019-02-12T18:39:17.711Z,63.74
2019-02-12T18:41:46.299Z,67.77
2019-02-12T18:44:14.905Z,65.73
2019-02-12T18:46:43.518Z,64.10
2019-02-12T18:49:12.130Z,63.04
2019-02-12T18:51:40.741Z,64.41
2019-02-12T18:54:09.402Z,66.43
2019-02-12T18:56:41.731Z,63.57
2019-02-12T18:59:08.340Z,64.90
2019-02-12T19:01:36.962Z,66.70
2019-02-12T19:04:05.540Z,64.87
2019-02-12T19:06:34.164Z,63.92
2019-02-12T19:09:03.088Z,67.52
2019-02-12T19:11:32.038Z,67.18
2019-02-12T19:14:00.628Z,65.20
2019-02-12T19:16:29.269Z,66.50
2019-02-12T19:18:57.849Z,66.06
2019-02-12T19:21:26.729Z,65.11
2019-02-12T19:23:55.452Z,67.14
2019-02-12T19:26:24.065Z,66.09
2019-02-12T19:28:52.654Z,67.05
2019-02-12T19:31:23.069Z,64.77
2019-02-12T19:33:51.656Z,67.92
2019-02-12T19:36:20.267Z,68.13
2019-02-12T19:38:49.728Z,69.70
2019-02-12T19:41:19.897Z,70.49
2019-02-12T19:43:48.497Z,67.58
2019-02-12T19:46:17.112Z,70.67
2019-02-12T19:48:45.712Z,68.13
2019-02-12T19:51:15.426Z,67.62
2019-02-12T19:53:44.027Z,66.92
2019-02-12T19:56:12.685Z,67.51
2019-02-12T19:58:41.290Z,67.88
2019-02-12T20:01:10.311Z,68.96
2019-02-12T20:03:38.990Z,67.90
2019-02-12T20:06:07.853Z,69.58
2019-02-12T20:08:36.630Z,68.50
2019-02-12T20:11:05.802Z,66.99
2019-02-12T20:13:34.404Z,68.13
2019-02-12T20:16:03.121Z,65.87
2019-02-12T20:18:31.696Z,66.45
2019-02-12T20:21:00.520Z,64.05
2019-02-12T20:23:29.187Z,65.29
2019-02-12T20:25:57.793Z,64.99
2019-02-12T20:28:26.408Z,64.28
2019-02-12T20:30:55.062Z,64.45
2019-02-12T20:33:23.762Z,66.43
2019-02-12T20:35:52.503Z,63.77
2019-02-12T20:38:22.034Z,62.78
2019-02-12T20:40:50.646Z,63.40
2019-02-12T20:43:19.254Z,67.03
2019-02-12T20:45:47.932Z,65.71
2019-02-12T20:48:16.640Z,65.82
2019-02-12T20:50:45.241Z,67.08
2019-02-12T20:53:13.941Z,67.61
2019-02-12T20:55:42.642Z,68.33
2019-02-12T20:58:11.278Z,67.05
2019-02-12T21:00:39.874Z,68.51
2019-02-12T21:03:08.485Z,66.43
2019-02-12T21:05:37.148Z,65.99
2019-02-12T21:08:05.780Z,66.14
2019-02-12T21:10:34.425Z,66.62
2019-02-12T21:13:03.049Z,65.50
2019-02-12T21:15:31.779Z,64.80
2019-02-12T21:18:00.405Z,63.11
2019-02-12T21:20:29.047Z,63.84
2019-02-12T21:22:57.656Z,66.27
2019-02-12T21:25:26.280Z,66.21
2019-02-12T21:27:55.116Z,65.35
2019-02-12T21:30:23.832Z,65.88
2019-02-12T21:32:52.455Z,64.53
2019-02-12T21:35:21.318Z,66.04
2019-02-12T21:37:50.010Z,66.36
2019-02-12T21:40:20.064Z,66.32
2019-02-12T21:42:49.484Z,65.69
2019-02-12T21:45:18.072Z,64.54
2019-02-12T21:47:46.715Z,63.28
2019-02-12T21:50:15.330Z,66.21
2019-02-12T21:52:43.978Z,65.58
2019-02-12T21:55:12.697Z,63.28
2019-02-12T21:57:41.419Z,64.03
2019-02-12T22:00:12.144Z,65.29
2019-02-12T22:02:40.732Z,62.62
2019-02-12T22:05:10.168Z,65.62
2019-02-12T22:07:38.783Z,66.58
2019-02-12T22:10:09.841Z,65.98
2019-02-12T22:12:38.464Z,64.51
2019-02-12T22:15:10.461Z,64.94
2019-02-12T22:17:39.225Z,63.59
2019-02-12T22:20:08.949Z,62.62
2019-02-12T22:22:37.581Z,66.25
2019-02-12T22:25:06.601Z,65.78
2019-02-12T22:27:40.452Z,64.55
2019-02-12T22:30:08.965Z,64.68
2019-02-12T22:32:37.601Z,66.79
2019-02-12T22:35:06.450Z,68.26
2019-02-12T22:37:35.070Z,66.55
2019-02-12T22:40:03.749Z,68.27
2019-02-12T22:42:32.355Z,69.43
2019-02-12T22:45:00.977Z,67.78
2019-02-12T22:47:29.623Z,69.22
2019-02-12T22:49:58.216Z,67.32
2019-02-12T22:52:26.807Z,67.93
2019-02-12T22:54:55.441Z,66.61
2019-02-12T22:57:24.101Z,68.20
2019-02-12T22:59:52.688Z,67.86
2019-02-12T23:02:21.325Z,68.83
2019-02-12T23:04:49.910Z,66.10
2019-02-12T23:07:18.525Z,66.28
2019-02-12T23:09:47.125Z,65.52
2019-02-12T23:12:15.935Z,66.37
2019-02-12T23:14:44.533Z,68.64
2019-02-12T23:17:13.130Z,69.85
2019-02-12T23:19:41.746Z,64.77
2019-02-12T23:22:10.352Z,66.29
2019-02-12T23:24:38.965Z,64.55
2019-02-12T23:27:07.556Z,64.24
2019-02-12T23:29:36.176Z,65.32
2019-02-12T23:32:05.036Z,65.24
2019-02-12T23:34:33.641Z,66.93
2019-02-12T23:37:02.282Z,66.31
2019-02-12T23:39:30.897Z,66.82
2019-02-12T23:41:59.494Z,67.26
2019-02-12T23:44:28.126Z,68.30
2019-02-12T23:46:56.716Z,65.14
2019-02-12T23:49:25.324Z,65.55
2019-02-12T23:51:53.956Z,66.27
2019-02-12T23:54:22.587Z,65.79
2019-02-12T23:56:51.186Z,64.15
2019-02-12T23:59:19.798Z,65.36
